Time;durP1;ratioP1;P1;durP2;ratioP2;P2;SDS_P1;SDS_P2;PMS_P1;PMS_P2;Temp;Humidity;BMP_temperature;BMP_pressure;BME280_temperature;BME280_humidity;BME280_pressure;Samples;Min_cycle;Max_cycle;Signal;HPM_P1;HPM_P2
2021/03/20 00:01:45;;;;;;;;;;;-4.90;98.00;;;;;;5088958;28;19923;-69
2021/03/20 00:04:14;;;;;;;;;;;-5.00;98.00;;;;;;5094373;28;19991;-68
2021/03/20 00:06:41;;;;;;;;;;;-5.10;97.90;;;;;;5070498;28;19912;-69
2021/03/20 00:09:08;;;;;;;;;;;-5.10;98.00;;;;;;5078347;28;19954;-70
2021/03/20 00:11:34;;;;;;;;;;;-5.20;98.00;;;;;;5086084;28;19939;-70
2021/03/20 00:14:00;;;;;;;;;;;-5.20;98.00;;;;;;5084173;28;20317;-70
2021/03/20 00:16:25;;;;;;;;;;;-5.30;98.00;;;;;;5085658;28;20019;-70
2021/03/20 00:18:51;;;;;;;;;;;-5.20;97.80;;;;;;5070426;28;19928;-70
2021/03/20 00:21:17;;;;;;;;;;;-5.10;97.90;;;;;;5086595;28;19912;-71
2021/03/20 00:23:43;;;;;;;;;;;-5.00;98.00;;;;;;5074287;28;19979;-70
2021/03/20 00:26:08;;;;;;;;;;;-5.10;98.00;;;;;;5091550;28;19920;-70
2021/03/20 00:28:34;;;;;;;;;;;-5.10;98.00;;;;;;5085944;28;19909;-70
2021/03/20 00:31:01;;;;;;;;;;;-5.00;98.00;;;;;;5081167;28;19954;-69
2021/03/20 00:33:27;;;;;;;;;;;-5.00;98.00;;;;;;5079810;28;20289;-70
2021/03/20 00:35:53;;;;;;;;;;;-5.00;98.00;;;;;;5093516;28;20214;-70
2021/03/20 00:38:19;;;;;;;;;;;-5.10;98.00;;;;;;5082090;28;19924;-69
2021/03/20 00:40:45;;;;;;;;;;;-5.10;98.00;;;;;;5080947;28;19916;-69
2021/03/20 00:43:11;;;;;;;;;;;-5.10;98.00;;;;;;5087886;28;20224;-69
2021/03/20 00:45:37;;;;;;;;;;;-5.20;98.00;;;;;;5070169;28;19920;-70
2021/03/20 00:48:04;;;;;;;;;;;-5.20;98.00;;;;;;5080384;28;19912;-70
2021/03/20 00:50:30;;;;;;;;;;;-5.20;98.00;;;;;;5064904;28;19920;-70
2021/03/20 00:52:55;;;;;;;;;;;-5.20;98.00;;;;;;5096429;28;19913;-69
2021/03/20 00:55:21;;;;;;;;;;;-5.20;98.00;;;;;;5074384;28;19912;-69
2021/03/20 00:57:46;;;;;;;;;;;-5.20;98.00;;;;;;5089205;28;19920;-69
2021/03/20 01:00:22;;;;;;;;;;;-5.10;98.00;;;;;;5075165;28;19912;-70
2021/03/20 01:02:47;;;;;;;;;;;-5.00;98.00;;;;;;5088114;28;19920;-69
2021/03/20 01:05:16;;;;;;;;;;;-5.00;98.00;;;;;;5094317;28;20357;-69
2021/03/20 01:07:41;;;;;;;;;;;-5.00;98.00;;;;;;5090726;28;19952;-70
2021/03/20 01:10:09;;;;;;;;;;;-5.20;98.00;;;;;;5080665;28;19940;-68
2021/03/20 01:12:34;;;;;;;;;;;-5.30;98.00;;;;;;5096889;28;19920;-70
2021/03/20 01:15:00;;;;;;;;;;;-5.40;98.00;;;;;;5082593;28;19930;-68
2021/03/20 01:17:26;;;;;;;;;;;-5.50;98.00;;;;;;5082877;28;19912;-69
2021/03/20 01:19:51;;;;;;;;;;;-5.40;98.00;;;;;;5082424;28;20010;-69
2021/03/20 01:22:17;;;;;;;;;;;-5.20;98.00;;;;;;5065351;28;19920;-68
2021/03/20 01:24:42;;;;;;;;;;;-4.90;98.00;;;;;;5086122;28;20008;-68
2021/03/20 01:27:08;;;;;;;;;;;-4.70;98.00;;;;;;5087361;28;19919;-69
2021/03/20 01:29:33;;;;;;;;;;;-4.70;98.00;;;;;;5085481;28;19921;-68
2021/03/20 01:31:59;;;;;;;;;;;-4.70;98.00;;;;;;5065570;28;19913;-68
2021/03/20 01:34:24;;;;;;;;;;;-4.70;98.00;;;;;;5090718;28;19923;-68
2021/03/20 01:36:50;;;;;;;;;;;-4.60;98.00;;;;;;5064514;28;19920;-69
2021/03/20 01:39:15;;;;;;;;;;;-4.60;98.00;;;;;;5092062;28;19916;-68
2021/03/20 01:41:42;;;;;;;;;;;-4.60;98.00;;;;;;5094250;28;19913;-69
2021/03/20 01:44:12;;;;;;;;;;;-4.60;98.00;;;;;;5081701;28;19912;-67
2021/03/20 01:46:40;;;;;;;;;;;-4.70;98.00;;;;;;5085449;28;19964;-67
2021/03/20 01:49:12;;;;;;;;;;;-4.90;98.00;;;;;;5073049;28;19916;-67
2021/03/20 01:51:38;;;;;;;;;;;-5.00;98.00;;;;;;5084344;28;20252;-69
2021/03/20 01:54:03;;;;;;;;;;;-5.00;98.00;;;;;;5083366;28;20246;-68
2021/03/20 01:56:39;;;;;;;;;;;-5.00;98.00;;;;;;5067789;28;19955;-68
2021/03/20 01:59:04;;;;;;;;;;;-5.10;98.00;;;;;;5077223;28;19928;-67
2021/03/20 02:01:30;;;;;;;;;;;-5.10;98.00;;;;;;5078662;28;19912;-68
2021/03/20 02:03:57;;;;;;;;;;;-5.10;98.00;;;;;;5097708;28;19915;-68
2021/03/20 02:06:23;;;;;;;;;;;-5.10;98.00;;;;;;5085950;28;19919;-68
2021/03/20 02:08:49;;;;;;;;;;;-5.10;98.00;;;;;;5088987;28;19912;-69
2021/03/20 02:11:21;;;;;;;;;;;-5.10;98.00;;;;;;5078304;28;19999;-68
2021/03/20 02:13:53;;;;;;;;;;;-5.20;98.00;;;;;;5097645;28;20352;-69
2021/03/20 02:16:27;;;;;;;;;;;-5.30;98.00;;;;;;5082247;28;19920;-68
2021/03/20 02:19:02;;;;;;;;;;;-5.50;98.00;;;;;;5086369;28;20017;-68
2021/03/20 02:21:33;;;;;;;;;;;-5.50;98.00;;;;;;5073293;28;19919;-68
2021/03/20 02:24:05;;;;;;;;;;;-5.40;98.00;;;;;;5083498;28;19919;-68
2021/03/20 02:26:49;;;;;;;;;;;-5.40;98.00;;;;;;5078040;28;19948;-68
2021/03/20 02:29:14;;;;;;;;;;;-5.60;98.00;;;;;;5091688;28;20317;-68
2021/03/20 02:31:43;;;;;;;;;;;-5.60;98.00;;;;;;5077253;28;19919;-68
2021/03/20 02:34:17;;;;;;;;;;;-5.60;98.00;;;;;;5076761;28;19912;-69
2021/03/20 02:37:01;;;;;;;;;;;-5.60;98.00;;;;;;5089832;28;19956;-69
2021/03/20 02:39:27;;;;;;;;;;;-5.60;98.00;;;;;;5079641;28;19916;-68
2021/03/20 02:41:52;;;;;;;;;;;-5.50;98.00;;;;;;5090169;28;20313;-68
2021/03/20 02:44:21;;;;;;;;;;;-5.50;98.00;;;;;;5096742;28;19919;-69
2021/03/20 02:46:49;;;;;;;;;;;-5.40;98.00;;;;;;5083334;28;19959;-68
2021/03/20 02:49:20;;;;;;;;;;;-5.40;98.00;;;;;;5089414;28;20328;-68
2021/03/20 02:51:58;;;;;;;;;;;-5.40;98.00;;;;;;5078009;28;19912;-69
2021/03/20 02:54:38;;;;;;;;;;;-5.40;98.00;;;;;;5077514;28;20003;-68
2021/03/20 02:57:04;;;;;;;;;;;-5.30;98.00;;;;;;5077624;28;20230;-68
2021/03/20 02:59:32;;;;;;;;;;;-5.30;98.00;;;;;;5078345;28;19924;-68
2021/03/20 03:02:03;;;;;;;;;;;-5.20;98.00;;;;;;5086834;28;19913;-68
2021/03/20 03:04:31;;;;;;;;;;;-5.10;98.00;;;;;;5058277;28;19912;-70
2021/03/20 03:07:03;;;;;;;;;;;-4.90;98.00;;;;;;5076613;28;19934;-69
2021/03/20 03:09:49;;;;;;;;;;;-4.80;98.00;;;;;;5071600;28;19916;-69
2021/03/20 03:12:29;;;;;;;;;;;-4.60;98.00;;;;;;5036984;28;19920;-69
2021/03/20 03:15:01;;;;;;;;;;;-4.50;98.00;;;;;;5071983;28;19931;-70
2021/03/20 03:17:27;;;;;;;;;;;-4.20;98.00;;;;;;5095747;28;20216;-69
2021/03/20 03:19:57;;;;;;;;;;;-4.10;98.00;;;;;;5058514;28;19912;-69
2021/03/20 03:22:26;;;;;;;;;;;-4.10;98.00;;;;;;5076597;28;19916;-69
2021/03/20 03:24:53;;;;;;;;;;;-4.00;98.00;;;;;;5085459;28;19912;-69
2021/03/20 03:27:19;;;;;;;;;;;-4.10;98.00;;;;;;5081058;28;20289;-69
2021/03/20 03:29:45;;;;;;;;;;;-4.20;98.00;;;;;;5086970;28;19951;-69
2021/03/20 03:32:23;;;;;;;;;;;-4.20;98.00;;;;;;5078616;28;20332;-69
2021/03/20 03:34:49;;;;;;;;;;;-4.30;98.00;;;;;;5084494;28;19912;-69
2021/03/20 03:37:20;;;;;;;;;;;-4.20;98.00;;;;;;5092913;28;19916;-69
2021/03/20 03:39:49;;;;;;;;;;;-4.20;98.00;;;;;;5082017;28;19916;-69
2021/03/20 03:42:16;;;;;;;;;;;-4.30;98.00;;;;;;5082104;28;19952;-69
2021/03/20 03:44:42;;;;;;;;;;;-4.30;98.00;;;;;;5065073;28;20007;-69
2021/03/20 03:47:08;;;;;;;;;;;-4.30;98.00;;;;;;5075769;28;20259;-69
2021/03/20 03:49:34;;;;;;;;;;;-4.40;98.00;;;;;;5087374;28;20368;-69
2021/03/20 03:51:59;;;;;;;;;;;-4.30;98.00;;;;;;5082706;28;19951;-69
2021/03/20 03:54:28;;;;;;;;;;;-4.20;98.00;;;;;;5091441;28;20023;-69
2021/03/20 03:57:07;;;;;;;;;;;-4.00;98.00;;;;;;5076188;28;19920;-69
2021/03/20 03:59:35;;;;;;;;;;;-3.90;98.00;;;;;;5087345;28;19931;-69
2021/03/20 04:02:15;;;;;;;;;;;-3.90;98.00;;;;;;5071312;28;19956;-70
2021/03/20 04:04:58;;;;;;;;;;;-4.00;98.00;;;;;;5081559;28;19913;-68
2021/03/20 04:07:41;;;;;;;;;;;-3.80;98.00;;;;;;5090617;28;19912;-67
2021/03/20 04:10:25;;;;;;;;;;;-3.80;98.00;;;;;;5085095;28;19951;-69
2021/03/20 04:12:57;;;;;;;;;;;-3.80;98.00;;;;;;5081792;28;19908;-67
2021/03/20 04:15:22;;;;;;;;;;;-3.80;98.00;;;;;;5062042;28;20359;-68
2021/03/20 04:18:23;;;;;;;;;;;-3.70;98.00;;;;;;5092548;28;19926;-70
2021/03/20 04:20:57;;;;;;;;;;;-3.60;98.00;;;;;;5005668;28;20322;-68
2021/03/20 04:23:31;;;;;;;;;;;-3.40;98.00;;;;;;5060003;28;19913;-67
2021/03/20 04:26:00;;;;;;;;;;;-3.30;98.00;;;;;;5093389;28;19923;-68
2021/03/20 04:28:30;;;;;;;;;;;-3.40;98.00;;;;;;5068337;28;20448;-68
2021/03/20 04:31:06;;;;;;;;;;;-3.50;98.00;;;;;;5085975;28;19919;-69
2021/03/20 04:33:35;;;;;;;;;;;-3.60;98.00;;;;;;5089071;28;19912;-68
2021/03/20 04:36:05;;;;;;;;;;;-3.60;98.00;;;;;;5086584;28;19983;-67
2021/03/20 04:38:30;;;;;;;;;;;-3.60;98.00;;;;;;5066421;28;20321;-68
2021/03/20 04:40:58;;;;;;;;;;;-3.60;98.00;;;;;;5086511;28;19908;-68
2021/03/20 04:43:27;;;;;;;;;;;-3.60;98.00;;;;;;5098576;28;20223;-69
2021/03/20 04:45:58;;;;;;;;;;;-3.50;98.00;;;;;;5089565;28;19954;-68
2021/03/20 04:48:24;;;;;;;;;;;-3.40;98.00;;;;;;5083727;28;19927;-67
2021/03/20 04:51:00;;;;;;;;;;;-3.40;98.00;;;;;;5069092;28;19912;-68
2021/03/20 04:53:25;;;;;;;;;;;-3.30;98.00;;;;;;5089833;28;19916;-69
2021/03/20 04:55:55;;;;;;;;;;;-3.30;98.00;;;;;;5080041;28;20368;-69
2021/03/20 04:58:32;;;;;;;;;;;-3.30;98.00;;;;;;5061022;28;20332;-68
2021/03/20 05:01:02;;;;;;;;;;;-3.20;98.00;;;;;;5086945;28;20327;-68
2021/03/20 05:03:34;;;;;;;;;;;-3.10;98.00;;;;;;5077765;28;20228;-68
2021/03/20 05:06:04;;;;;;;;;;;-3.10;98.00;;;;;;5093832;28;19916;-69
2021/03/20 05:08:35;;;;;;;;;;;-3.10;98.00;;;;;;5063478;28;19969;-67
2021/03/20 05:11:00;;;;;;;;;;;-3.10;98.00;;;;;;5081611;28;19912;-69
2021/03/20 05:13:41;;;;;;;;;;;-3.20;98.00;;;;;;5098263;28;19912;-69
2021/03/20 05:16:20;;;;;;;;;;;-3.20;98.00;;;;;;5086046;28;19950;-67
2021/03/20 05:18:46;;;;;;;;;;;-3.10;98.00;;;;;;5088495;28;20275;-68
2021/03/20 05:21:25;;;;;;;;;;;-3.10;98.00;;;;;;5085241;28;19912;-67
2021/03/20 05:23:51;;;;;;;;;;;-3.10;98.00;;;;;;5087901;28;19917;-67
2021/03/20 05:26:17;;;;;;;;;;;-3.10;98.00;;;;;;5095482;28;19996;-68
2021/03/20 05:28:42;;;;;;;;;;;-3.10;98.00;;;;;;5098256;28;19930;-68
2021/03/20 05:31:08;;;;;;;;;;;-3.00;98.00;;;;;;5089952;28;19919;-67
2021/03/20 05:33:36;;;;;;;;;;;-3.00;98.00;;;;;;5082443;28;20376;-67
2021/03/20 05:36:01;;;;;;;;;;;-3.00;98.00;;;;;;5078136;28;19912;-69
2021/03/20 05:38:27;;;;;;;;;;;-3.00;98.00;;;;;;5085249;28;19923;-67
2021/03/20 05:40:59;;;;;;;;;;;-3.00;98.00;;;;;;5087864;28;20021;-68
2021/03/20 05:43:24;;;;;;;;;;;-2.90;98.00;;;;;;5084364;28;19924;-67
2021/03/20 05:46:02;;;;;;;;;;;-2.90;98.00;;;;;;5084037;28;20560;-68
2021/03/20 05:48:30;;;;;;;;;;;-2.90;98.00;;;;;;5088251;28;19919;-67
2021/03/20 05:50:55;;;;;;;;;;;-2.90;98.00;;;;;;5087558;28;20003;-67
2021/03/20 05:53:44;;;;;;;;;;;-2.80;98.00;;;;;;5084610;28;19995;-67
2021/03/20 05:56:20;;;;;;;;;;;-2.90;98.00;;;;;;5085035;28;20012;-67
2021/03/20 05:58:50;;;;;;;;;;;-2.80;98.00;;;;;;5082674;28;19964;-70
2021/03/20 06:01:35;;;;;;;;;;;-2.80;98.00;;;;;;5089396;28;19920;-69
2021/03/20 06:04:00;;;;;;;;;;;-2.80;98.00;;;;;;5071828;28;19912;-69
2021/03/20 06:06:44;;;;;;;;;;;-2.80;98.00;;;;;;5085531;28;19919;-68
2021/03/20 06:09:39;;;;;;;;;;;-2.70;98.00;;;;;;5085901;28;19924;-68
2021/03/20 06:12:12;;;;;;;;;;;-2.70;98.00;;;;;;5070215;28;19916;-69
2021/03/20 06:14:56;;;;;;;;;;;-2.60;98.00;;;;;;5078550;28;19916;-69
2021/03/20 06:17:27;;;;;;;;;;;-2.60;98.00;;;;;;5095761;28;19920;-68
2021/03/20 06:20:12;;;;;;;;;;;-2.60;98.00;;;;;;5066328;28;19912;-69
2021/03/20 06:22:58;;;;;;;;;;;-2.50;98.00;;;;;;5082688;28;19916;-69
2021/03/20 06:25:24;;;;;;;;;;;-2.50;98.00;;;;;;5088262;28;20313;-70
2021/03/20 06:27:51;;;;;;;;;;;-2.30;98.00;;;;;;5094060;28;19917;-69
2021/03/20 06:30:35;;;;;;;;;;;-2.30;98.00;;;;;;5087768;28;19911;-69
2021/03/20 06:33:08;;;;;;;;;;;-2.30;98.00;;;;;;5085334;28;19952;-69
2021/03/20 06:35:37;;;;;;;;;;;-2.30;98.00;;;;;;5063334;28;19924;-69
2021/03/20 06:38:04;;;;;;;;;;;-2.20;98.00;;;;;;5085979;28;19916;-69
2021/03/20 06:40:29;;;;;;;;;;;-2.20;98.00;;;;;;5086107;28;20312;-68
2021/03/20 06:42:57;;;;;;;;;;;-2.10;98.00;;;;;;5077848;28;19913;-69
2021/03/20 06:45:25;;;;;;;;;;;-1.90;98.00;;;;;;5061938;28;20643;-69
2021/03/20 06:47:54;;;;;;;;;;;-1.90;98.00;;;;;;5076176;28;20356;-69
2021/03/20 06:50:31;;;;;;;;;;;-1.80;98.00;;;;;;5076276;28;19917;-70
2021/03/20 06:53:00;;;;;;;;;;;-1.80;98.00;;;;;;5079219;28;19921;-69
2021/03/20 06:55:28;;;;;;;;;;;-1.70;98.00;;;;;;5085843;28;19916;-68
2021/03/20 06:58:11;;;;;;;;;;;-1.70;98.00;;;;;;5077118;28;20020;-69
2021/03/20 07:00:37;;;;;;;;;;;-1.60;98.00;;;;;;5079110;28;20289;-69
2021/03/20 07:03:21;;;;;;;;;;;-1.50;98.00;;;;;;5076404;28;20011;-69
2021/03/20 07:05:58;;;;;;;;;;;-1.40;98.00;;;;;;5075897;28;19916;-68
2021/03/20 07:08:26;;;;;;;;;;;-1.50;98.00;;;;;;5076073;28;19943;-68
2021/03/20 07:10:53;;;;;;;;;;;-1.40;98.00;;;;;;5073455;28;19982;-68
2021/03/20 07:13:26;;;;;;;;;;;-1.50;98.00;;;;;;5076201;28;19912;-69
2021/03/20 07:16:06;;;;;;;;;;;-1.40;98.00;;;;;;5082906;28;19916;-69
2021/03/20 07:18:44;;;;;;;;;;;-1.50;98.00;;;;;;5075578;28;20301;-67
2021/03/20 07:21:24;;;;;;;;;;;-1.50;98.00;;;;;;5077089;28;19920;-68
2021/03/20 07:23:58;;;;;;;;;;;-1.10;98.00;;;;;;5074748;28;19959;-70
2021/03/20 07:26:24;;;;;;;;;;;-0.80;98.00;;;;;;5063203;28;19919;-69
2021/03/20 07:28:51;;;;;;;;;;;-0.80;98.00;;;;;;5074634;28;19913;-70
2021/03/20 07:31:17;;;;;;;;;;;-0.80;98.00;;;;;;5080022;28;20007;-67
2021/03/20 07:33:47;;;;;;;;;;;-0.90;98.00;;;;;;5080301;28;19913;-69
2021/03/20 07:36:13;;;;;;;;;;;-1.10;98.00;;;;;;5075143;28;19916;-69
2021/03/20 07:38:38;;;;;;;;;;;-0.90;98.00;;;;;;5090118;28;19916;-68
2021/03/20 07:41:06;;;;;;;;;;;-0.90;98.00;;;;;;5063712;28;19978;-69
2021/03/20 07:43:31;;;;;;;;;;;-0.70;98.00;;;;;;5080922;28;19912;-67
2021/03/20 07:46:06;;;;;;;;;;;-0.50;97.50;;;;;;5075227;28;20054;-68
2021/03/20 07:48:31;;;;;;;;;;;-0.20;97.20;;;;;;5075674;28;19923;-69
2021/03/20 07:50:57;;;;;;;;;;;0.20;95.40;;;;;;5091072;28;19908;-69
2021/03/20 07:53:23;;;;;;;;;;;0.40;93.20;;;;;;5071251;28;20370;-69
2021/03/20 07:56:03;;;;;;;;;;;0.20;93.10;;;;;;5076033;28;19940;-68
2021/03/20 07:58:29;;;;;;;;;;;-0.20;93.10;;;;;;5075280;28;19925;-69
2021/03/20 08:00:57;;;;;;;;;;;-0.30;93.10;;;;;;5075548;28;20213;-69
2021/03/20 08:03:24;;;;;;;;;;;-0.20;92.80;;;;;;5078370;28;19919;-69
2021/03/20 08:05:50;;;;;;;;;;;0.10;92.40;;;;;;5083152;28;19908;-69
2021/03/20 08:08:16;;;;;;;;;;;0.20;91.30;;;;;;5080257;28;20536;-68
2021/03/20 08:10:44;;;;;;;;;;;0.70;89.70;;;;;;5073172;28;19937;-69
2021/03/20 08:13:15;;;;;;;;;;;0.80;88.30;;;;;;5090342;28;19920;-67
2021/03/20 08:15:42;;;;;;;;;;;0.60;87.40;;;;;;5090495;28;19945;-69
2021/03/20 08:18:16;;;;;;;;;;;0.40;87.80;;;;;;5089576;28;19916;-69
2021/03/20 08:20:42;;;;;;;;;;;0.20;88.20;;;;;;5080636;28;20016;-69
2021/03/20 08:23:34;;;;;;;;;;;-0.20;88.70;;;;;;5075627;28;19920;-68
2021/03/20 08:26:02;;;;;;;;;;;-0.20;88.90;;;;;;5049382;28;19917;-68
2021/03/20 08:28:43;;;;;;;;;;;-0.50;89.20;;;;;;5057535;28;19912;-68
2021/03/20 08:31:17;;;;;;;;;;;-0.60;89.60;;;;;;5064182;28;19920;-69
2021/03/20 08:34:01;;;;;;;;;;;-0.40;90.30;;;;;;5084987;28;20007;-68
2021/03/20 08:36:36;;;;;;;;;;;-0.20;89.00;;;;;;5076606;28;19912;-67
2021/03/20 08:39:06;;;;;;;;;;;-0.10;88.40;;;;;;5074025;28;19922;-68
2021/03/20 08:41:31;;;;;;;;;;;0.20;85.50;;;;;;5090860;28;19916;-68
2021/03/20 08:44:10;;;;;;;;;;;0.30;84.40;;;;;;5079439;28;20684;-68
2021/03/20 08:46:51;;;;;;;;;;;0.40;83.00;;;;;;5087340;28;19941;-68
2021/03/20 08:49:25;;;;;;;;;;;0.00;82.30;;;;;;5089458;28;19966;-68
2021/03/20 08:52:04;;;;;;;;;;;-0.10;83.30;;;;;;5092086;28;19921;-68
2021/03/20 08:54:41;;;;;;;;;;;0.40;83.70;;;;;;5091791;28;19951;-72
2021/03/20 08:57:24;;;;;;;;;;;2.20;80.30;;;;;;5083587;28;19912;-70
2021/03/20 08:59:52;;;;;;;;;;;2.80;76.40;;;;;;5091544;28;19972;-69
2021/03/20 09:02:23;;;;;;;;;;;2.60;76.80;;;;;;5086421;28;19913;-69
2021/03/20 09:04:54;;;;;;;;;;;2.70;77.30;;;;;;5062826;28;19920;-69
2021/03/20 09:07:25;;;;;;;;;;;3.00;74.30;;;;;;5090214;28;19942;-68
2021/03/20 09:10:01;;;;;;;;;;;2.30;74.80;;;;;;5089431;28;19935;-68
2021/03/20 09:12:35;;;;;;;;;;;1.60;76.20;;;;;;5077312;28;19912;-70
2021/03/20 09:15:03;;;;;;;;;;;3.20;76.50;;;;;;5087337;28;19920;-70
2021/03/20 09:17:31;;;;;;;;;;;5.90;70.80;;;;;;5088345;28;20328;-69
2021/03/20 09:20:16;;;;;;;;;;;6.60;63.50;;;;;;5094217;28;19913;-69
2021/03/20 09:22:46;;;;;;;;;;;7.00;65.00;;;;;;5090058;28;20366;-71
2021/03/20 09:25:24;;;;;;;;;;;6.80;63.50;;;;;;5088397;28;20422;-70
2021/03/20 09:27:58;;;;;;;;;;;5.70;62.90;;;;;;5095233;28;19912;-70
2021/03/20 09:30:32;;;;;;;;;;;4.60;65.90;;;;;;5090730;28;20296;-70
2021/03/20 09:33:00;;;;;;;;;;;4.20;67.40;;;;;;5090857;28;20044;-69
2021/03/20 09:35:36;;;;;;;;;;;4.60;66.30;;;;;;5085513;28;19954;-71
2021/03/20 09:38:02;;;;;;;;;;;4.60;65.80;;;;;;5087744;28;19941;-72
2021/03/20 09:40:48;;;;;;;;;;;5.60;65.60;;;;;;5093715;28;20383;-71
2021/03/20 09:43:32;;;;;;;;;;;6.20;62.30;;;;;;5095129;28;19916;-70
2021/03/20 09:46:16;;;;;;;;;;;5.70;61.80;;;;;;5095841;28;19950;-69
2021/03/20 09:48:43;;;;;;;;;;;4.30;63.30;;;;;;5095061;28;19924;-68
2021/03/20 09:51:27;;;;;;;;;;;3.40;67.20;;;;;;5096501;28;19916;-69
2021/03/20 09:53:53;;;;;;;;;;;2.70;67.00;;;;;;5093564;28;19915;-69
2021/03/20 09:56:29;;;;;;;;;;;1.50;71.20;;;;;;5096635;28;19916;-68
2021/03/20 09:59:03;;;;;;;;;;;0.70;72.90;;;;;;5089326;28;20228;-67
2021/03/20 10:01:44;;;;;;;;;;;0.30;74.00;;;;;;5095265;28;19947;-68
2021/03/20 10:04:12;;;;;;;;;;;0.60;76.70;;;;;;5090374;28;19908;-66
2021/03/20 10:06:40;;;;;;;;;;;0.80;76.70;;;;;;5061088;28;19965;-69
2021/03/20 10:09:06;;;;;;;;;;;1.30;75.70;;;;;;5064150;28;19912;-68
2021/03/20 10:11:37;;;;;;;;;;;3.00;72.80;;;;;;5088831;28;19935;-68
2021/03/20 10:14:22;;;;;;;;;;;4.50;69.60;;;;;;5095034;28;20301;-68
2021/03/20 10:17:02;;;;;;;;;;;5.20;65.10;;;;;;5088973;28;19919;-69
2021/03/20 10:19:33;;;;;;;;;;;5.90;64.70;;;;;;5085515;28;20003;-68
2021/03/20 10:22:02;;;;;;;;;;;5.80;64.40;;;;;;5092873;28;19971;-70
2021/03/20 10:24:28;;;;;;;;;;;5.00;66.60;;;;;;5085986;28;19919;-69
2021/03/20 10:27:01;;;;;;;;;;;5.60;64.90;;;;;;5086258;28;19999;-70
2021/03/20 10:29:35;;;;;;;;;;;5.30;63.30;;;;;;5091091;28;19920;-68
2021/03/20 10:32:07;;;;;;;;;;;4.90;63.00;;;;;;5091331;28;19908;-70
2021/03/20 10:34:43;;;;;;;;;;;4.10;64.70;;;;;;5092181;28;19912;-70
2021/03/20 10:37:09;;;;;;;;;;;4.30;65.50;;;;;;5067879;28;19916;-69
2021/03/20 10:39:36;;;;;;;;;;;5.20;63.30;;;;;;5078812;28;20012;-71
2021/03/20 10:42:05;;;;;;;;;;;6.30;62.40;;;;;;5078236;28;19928;-71
2021/03/20 10:44:39;;;;;;;;;;;7.00;60.10;;;;;;5080091;28;20008;-70
2021/03/20 10:47:07;;;;;;;;;;;8.00;59.00;;;;;;5092546;28;19912;-71
2021/03/20 10:49:36;;;;;;;;;;;7.00;58.30;;;;;;5071086;28;19970;-69
2021/03/20 10:52:02;;;;;;;;;;;6.40;62.30;;;;;;5096560;28;19908;-69
2021/03/20 10:54:27;;;;;;;;;;;6.60;58.80;;;;;;5093998;28;19931;-70
2021/03/20 10:56:54;;;;;;;;;;;6.90;58.90;;;;;;5085775;28;19913;-71
2021/03/20 10:59:25;;;;;;;;;;;7.20;55.80;;;;;;5079021;28;19931;-71
2021/03/20 11:01:51;;;;;;;;;;;7.40;57.30;;;;;;5088203;28;19999;-71
2021/03/20 11:04:30;;;;;;;;;;;8.20;54.50;;;;;;5090178;28;20269;-71
2021/03/20 11:06:58;;;;;;;;;;;8.20;53.90;;;;;;5082325;28;20295;-72
2021/03/20 11:09:25;;;;;;;;;;;7.30;53.80;;;;;;5087494;28;19919;-71
2021/03/20 11:11:56;;;;;;;;;;;7.80;55.70;;;;;;5072060;28;20011;-69
2021/03/20 11:14:21;;;;;;;;;;;7.90;54.10;;;;;;5080044;28;19958;-70
2021/03/20 11:16:50;;;;;;;;;;;7.90;53.90;;;;;;5080055;28;19915;-71
2021/03/20 11:19:24;;;;;;;;;;;6.60;55.70;;;;;;5091552;28;20297;-71
2021/03/20 11:21:50;;;;;;;;;;;6.60;57.80;;;;;;5088966;28;19913;-70
2021/03/20 11:24:22;;;;;;;;;;;6.10;55.40;;;;;;5091593;28;19912;-69
2021/03/20 11:26:48;;;;;;;;;;;5.80;56.50;;;;;;5083353;28;20341;-70
2021/03/20 11:29:19;;;;;;;;;;;6.00;58.70;;;;;;5089990;28;19920;-71
2021/03/20 11:31:48;;;;;;;;;;;6.60;57.10;;;;;;5093432;28;19923;-70
2021/03/20 11:34:20;;;;;;;;;;;7.10;54.50;;;;;;5082561;28;19916;-68
2021/03/20 11:36:46;;;;;;;;;;;6.80;54.80;;;;;;5086246;28;21018;-70
2021/03/20 11:39:13;;;;;;;;;;;6.80;56.60;;;;;;5069560;28;19916;-69
2021/03/20 11:41:39;;;;;;;;;;;7.00;56.60;;;;;;5069111;28;19916;-69
2021/03/20 11:44:16;;;;;;;;;;;6.50;57.40;;;;;;5075831;28;19916;-69
2021/03/20 11:47:02;;;;;;;;;;;6.60;58.90;;;;;;5078259;28;20226;-70
2021/03/20 11:49:36;;;;;;;;;;;6.80;56.40;;;;;;5082478;28;19924;-69
2021/03/20 11:52:02;;;;;;;;;;;7.20;55.80;;;;;;5059102;28;19928;-69
2021/03/20 11:54:30;;;;;;;;;;;7.10;54.30;;;;;;5074389;28;19919;-69
2021/03/20 11:57:02;;;;;;;;;;;7.10;55.40;;;;;;5088986;28;20537;-68
2021/03/20 11:59:34;;;;;;;;;;;7.20;55.60;;;;;;5095961;28;19967;-68
2021/03/20 12:01:59;;;;;;;;;;;7.00;56.10;;;;;;5078147;28;19921;-68
2021/03/20 12:04:28;;;;;;;;;;;6.10;55.80;;;;;;5070844;28;19919;-68
2021/03/20 12:07:12;;;;;;;;;;;5.00;58.80;;;;;;5084818;28;19921;-68
2021/03/20 12:09:37;;;;;;;;;;;4.20;61.70;;;;;;5074634;28;20279;-68
2021/03/20 12:12:04;;;;;;;;;;;4.50;62.70;;;;;;5095608;28;20192;-67
2021/03/20 12:14:30;;;;;;;;;;;5.60;61.40;;;;;;5086872;28;20300;-68
2021/03/20 12:17:02;;;;;;;;;;;5.80;59.90;;;;;;5064433;28;19919;-68
2021/03/20 12:19:28;;;;;;;;;;;5.70;59.20;;;;;;5071210;28;19948;-68
2021/03/20 12:21:53;;;;;;;;;;;5.30;59.10;;;;;;5066270;28;20297;-68
2021/03/20 12:24:20;;;;;;;;;;;5.00;60.50;;;;;;5081422;28;19975;-68
2021/03/20 12:26:45;;;;;;;;;;;4.50;60.50;;;;;;5087429;28;19912;-68
2021/03/20 12:29:25;;;;;;;;;;;3.80;63.50;;;;;;5085282;28;20208;-67
2021/03/20 12:31:50;;;;;;;;;;;3.40;64.00;;;;;;5076286;28;19912;-67
2021/03/20 12:34:16;;;;;;;;;;;3.00;63.70;;;;;;5083751;28;19919;-67
2021/03/20 12:36:43;;;;;;;;;;;2.50;65.50;;;;;;5087840;28;19920;-67
2021/03/20 12:39:10;;;;;;;;;;;2.30;65.20;;;;;;5087984;28;19977;-67
2021/03/20 12:41:36;;;;;;;;;;;2.70;66.30;;;;;;5088980;28;19964;-67
2021/03/20 12:44:04;;;;;;;;;;;3.40;64.00;;;;;;5066839;28;19974;-68
2021/03/20 12:46:30;;;;;;;;;;;3.70;63.20;;;;;;5087547;28;19965;-67
2021/03/20 12:48:55;;;;;;;;;;;3.80;61.50;;;;;;5083323;28;19928;-67
2021/03/20 12:51:23;;;;;;;;;;;3.80;61.60;;;;;;5087983;28;19920;-66
2021/03/20 12:53:48;;;;;;;;;;;4.40;62.90;;;;;;5082864;28;19912;-67
2021/03/20 12:56:14;;;;;;;;;;;4.40;60.40;;;;;;5089414;28;19965;-67
2021/03/20 12:58:40;;;;;;;;;;;3.50;60.80;;;;;;5097699;28;20335;-67
2021/03/20 13:01:05;;;;;;;;;;;3.20;61.80;;;;;;5096671;28;19912;-68
2021/03/20 13:03:31;;;;;;;;;;;3.70;62.80;;;;;;5086537;28;20221;-67
2021/03/20 13:05:57;;;;;;;;;;;4.20;61.10;;;;;;5081267;28;20402;-67
2021/03/20 13:08:22;;;;;;;;;;;4.60;65.00;;;;;;5077774;28;19967;-68
2021/03/20 13:10:48;;;;;;;;;;;4.50;61.40;;;;;;5095556;28;19912;-67
2021/03/20 13:13:13;;;;;;;;;;;4.70;63.60;;;;;;5098976;28;19908;-67
2021/03/20 13:15:39;;;;;;;;;;;4.80;60.30;;;;;;5098598;28;20314;-67
2021/03/20 13:18:05;;;;;;;;;;;4.50;58.90;;;;;;5086700;28;20252;-68
2021/03/20 13:20:30;;;;;;;;;;;4.40;59.70;;;;;;5084315;28;20217;-67
2021/03/20 13:22:56;;;;;;;;;;;4.50;61.30;;;;;;5085064;28;19912;-67
2021/03/20 13:25:25;;;;;;;;;;;4.50;61.10;;;;;;5095393;28;20368;-67
2021/03/20 13:27:52;;;;;;;;;;;4.90;61.30;;;;;;5098287;28;19912;-67
2021/03/20 13:30:22;;;;;;;;;;;4.70;59.00;;;;;;5092453;28;19938;-66
2021/03/20 13:32:48;;;;;;;;;;;4.60;61.10;;;;;;5096684;28;19912;-68
2021/03/20 13:35:14;;;;;;;;;;;4.50;60.40;;;;;;5080529;28;19916;-67
2021/03/20 13:37:40;;;;;;;;;;;4.40;59.30;;;;;;5091146;28;19926;-67
2021/03/20 13:40:06;;;;;;;;;;;4.10;59.30;;;;;;5086414;28;20213;-68
2021/03/20 13:42:31;;;;;;;;;;;3.80;61.60;;;;;;5096950;28;20289;-68
2021/03/20 13:44:57;;;;;;;;;;;4.30;62.70;;;;;;5096592;28;19991;-67
2021/03/20 13:47:22;;;;;;;;;;;4.60;59.40;;;;;;5060236;28;20260;-67
2021/03/20 13:49:48;;;;;;;;;;;4.60;60.80;;;;;;5083535;28;20322;-68
2021/03/20 13:52:13;;;;;;;;;;;5.40;61.20;;;;;;5097342;28;20300;-67
2021/03/20 13:54:39;;;;;;;;;;;6.00;57.60;;;;;;5095017;28;19916;-67
2021/03/20 13:57:04;;;;;;;;;;;5.70;56.20;;;;;;5097904;28;20285;-68
2021/03/20 13:59:30;;;;;;;;;;;5.70;55.60;;;;;;5063970;28;19920;-67
2021/03/20 14:01:56;;;;;;;;;;;5.30;57.10;;;;;;5059995;28;19912;-67
2021/03/20 14:04:21;;;;;;;;;;;5.20;55.80;;;;;;5079334;28;19909;-67
2021/03/20 14:06:47;;;;;;;;;;;5.10;58.30;;;;;;5091818;28;20308;-67
2021/03/20 14:09:12;;;;;;;;;;;5.20;56.50;;;;;;5089160;28;19958;-67
2021/03/20 14:11:38;;;;;;;;;;;5.40;55.10;;;;;;5091709;28;19916;-67
2021/03/20 14:14:04;;;;;;;;;;;5.50;55.20;;;;;;5097081;28;19920;-67
2021/03/20 14:16:30;;;;;;;;;;;4.90;56.20;;;;;;5095832;28;19919;-67
2021/03/20 14:18:56;;;;;;;;;;;5.00;58.50;;;;;;5060070;28;19916;-67
2021/03/20 14:21:21;;;;;;;;;;;5.20;55.60;;;;;;5077311;28;19995;-67
2021/03/20 14:23:48;;;;;;;;;;;5.00;56.50;;;;;;5084065;28;20011;-67
2021/03/20 14:26:14;;;;;;;;;;;4.90;55.30;;;;;;5097404;28;20362;-67
2021/03/20 14:28:39;;;;;;;;;;;4.90;54.00;;;;;;5062913;28;19912;-67
2021/03/20 14:31:05;;;;;;;;;;;5.10;55.00;;;;;;5096714;28;20006;-67
2021/03/20 14:33:33;;;;;;;;;;;5.30;55.50;;;;;;5085377;28;19916;-67
2021/03/20 14:36:04;;;;;;;;;;;5.10;56.70;;;;;;5067454;28;19917;-67
2021/03/20 14:38:33;;;;;;;;;;;5.40;58.90;;;;;;5090398;28;19952;-68
2021/03/20 14:40:59;;;;;;;;;;;5.60;55.10;;;;;;5085547;28;19919;-67